North Liberty, IA

3:48 PM CDT on May 22, 2017 (GMT -0500)
W Penn St / N Jones Blvd | | Change Station
Active Advisory: Flood Watch Active Notice: Flood Watch

Elev 541 ft 41.75 °N, 91.62 °W | Updated 4 minutes ago

Mostly Cloudy
Mostly Cloudy
65.8 °F
Feels Like 65.8 °F
N
25.3
Wind Variable Wind from SW
Gusts 31.7 mph

Today
High -- | Low -- °F
--% Chance of Precip.
Yesterday
High -- | Low -- °F
Precip. -- in
Pressure 29.91 in
Visibility 10.0 miles
Clouds Mostly Cloudy 9000 ft
Dew Point 54 °F
Humidity 66%
Rainfall 0.00 in
Snow Depth Not available.
5:40 AM 8:26 PM
Waning Crescent, 13% visible
METAR KIOW 221952Z AUTO 22018G29KT 10SM BKN090 22/13 A2991 RMK AO2 PK WND 21029/1931 SLP127 T02170128
Pressure 29.91 in
Visibility 10.0 miles
Clouds Mostly Cloudy 9000 ft
Dew Point 54 °F
Humidity 66%
Rainfall 0.00 in
Snow Depth Not available.
5:40 AM 8:26 PM
Waning Crescent, 13% visible
METAR KIOW 221952Z AUTO 22018G29KT 10SM BKN090 22/13 A2991 RMK AO2 PK WND 21029/1931 SLP127 T02170128

Get Your Daily Forecast Email!

Thanks for signing up!

Be on the lookout for a verification email in your inbox.

You'll start receiving severe weather alerts in your inbox..

×

10-Day Weather Forecast

Almanac

Astronomy

May. 22, 2017 Rise Set
Actual Time
Civil Twilight
Nautical Twilight
Astronomical Twilight
Moon
Length of Visible Light
Length of Day
Tomorrow will be .
, % of the Moon is Illuminated

Today's Extremes

State Highs State Lows

Community

WunderPhotos

Category 6

Welcome to Category 6. This is the collective home for Weather Underground's featured writeups by Dr. Jeff Masters (right), Bob Henson (left), Chris Burt, and other regular contributors.

Nearby

Air Quality

  Air Quality AQ Index Pollutant
Not available.

Snow Depth

Station Depth Elevation

Earthquake Activity

City Distance Mag. Time & Date
Minimum magnitude displayed is 2.5.

Coastal Water Temperatures

Place Temperature

Stations

Nearby Weather Stations

Station Location Temp. Windchill Dew Point Humidity Wind Precip. Elev Updated Type
                   

Watches & Warnings

Flood Watch
Issued: 9:06 AM CDT May. 22, 2017 – National Weather Service

The Flood Watch continues for
the Iowa river at Marengo
* until Tuesday evening.
* At 8:00 am Monday the stage was 13.5 feet.
* Flood stage is 14.0 feet.
* Minor flooding is possible.
* Forecast... rise to flood stage Tuesday.
* This forecast is based on routed flow from upstream in combination
with forecast rainfall. Consequently there is limited confidence
in the river reaching flood stage.


Lat... Lon 4182 9230 4187 9230 4182 9183 4175 9183
      4176 9197